createdAt,value
2023-02-09T00:00:13.276Z,16.20
2023-02-09T00:02:42.694Z,17.73
2023-02-09T00:05:12.083Z,18.57
2023-02-09T00:07:40.983Z,18.67
2023-02-09T00:10:10.750Z,17.77
2023-02-09T00:12:57.077Z,19.00
2023-02-09T00:15:27.349Z,18.07
2023-02-09T00:17:56.139Z,18.90
2023-02-09T00:20:25.212Z,18.13
2023-02-09T00:22:54.025Z,17.83
2023-02-09T00:25:22.779Z,18.73
2023-02-09T00:27:51.645Z,17.77
2023-02-09T00:30:20.798Z,18.07
2023-02-09T00:32:50.958Z,18.53
2023-02-09T00:35:20.632Z,18.10
2023-02-09T00:37:49.557Z,16.50
2023-02-09T00:40:18.812Z,17.27
2023-02-09T00:42:47.649Z,17.20
2023-02-09T00:45:16.545Z,18.87
2023-02-09T00:47:45.505Z,17.00
2023-02-09T00:50:16.012Z,18.43
2023-02-09T00:52:44.723Z,17.77
2023-02-09T00:55:13.623Z,17.50
2023-02-09T00:57:42.455Z,18.37
2023-02-09T01:00:15.621Z,17.87
2023-02-09T01:02:44.507Z,17.57
2023-02-09T01:05:14.695Z,17.67
2023-02-09T01:07:43.524Z,17.57
2023-02-09T01:10:12.567Z,17.60
2023-02-09T01:12:42.323Z,17.33
2023-02-09T01:15:15.507Z,17.30
2023-02-09T01:17:44.301Z,17.20
2023-02-09T01:20:16.435Z,17.70
2023-02-09T01:22:45.286Z,16.77
2023-02-09T01:25:14.055Z,17.83
2023-02-09T01:27:42.906Z,18.10
2023-02-09T01:30:13.241Z,16.47
2023-02-09T01:32:42.057Z,16.60
2023-02-09T01:35:11.416Z,17.73
2023-02-09T01:37:41.678Z,15.33
2023-02-09T01:40:13.004Z,16.70
2023-02-09T01:42:41.902Z,16.20
2023-02-09T01:45:29.937Z,17.27
2023-02-09T01:48:03.593Z,16.27
2023-02-09T01:50:38.087Z,16.43
2023-02-09T01:53:09.566Z,17.17
2023-02-09T01:55:54.520Z,16.43
2023-02-09T01:58:27.478Z,16.23
2023-02-09T02:00:57.924Z,16.33
2023-02-09T02:03:30.676Z,16.03
2023-02-09T02:06:06.439Z,17.43
2023-02-09T02:08:42.283Z,16.73
2023-02-09T02:11:12.016Z,16.73
2023-02-09T02:13:41.018Z,17.33
2023-02-09T02:16:38.804Z,16.10
2023-02-09T02:19:38.492Z,16.37
2023-02-09T02:22:53.749Z,15.13
2023-02-09T02:26:07.094Z,16.70
2023-02-09T02:28:56.321Z,16.03
2023-02-09T02:32:17.629Z,16.30
2023-02-09T02:34:54.788Z,15.60
2023-02-09T02:37:44.684Z,16.63
2023-02-09T02:40:29.962Z,15.90
2023-02-09T02:43:10.425Z,17.30
2023-02-09T02:45:46.325Z,15.97
2023-02-09T02:48:28.717Z,15.93
2023-02-09T02:51:05.446Z,15.57
2023-02-09T02:53:38.211Z,16.83
2023-02-09T02:56:14.136Z,16.13
2023-02-09T02:58:46.737Z,16.60
2023-02-09T03:01:22.122Z,15.70
2023-02-09T03:03:53.886Z,16.93
2023-02-09T03:06:22.704Z,17.80
2023-02-09T03:08:55.329Z,17.70
2023-02-09T03:11:31.821Z,17.23
2023-02-09T03:14:38.573Z,16.93
2023-02-09T03:17:25.394Z,17.20
2023-02-09T03:20:04.985Z,16.40
2023-02-09T03:22:39.811Z,17.13
2023-02-09T03:25:16.318Z,16.77
2023-02-09T03:27:55.072Z,17.73
2023-02-09T03:30:25.841Z,15.57
2023-02-09T03:32:56.469Z,15.77
2023-02-09T03:35:35.450Z,18.17
2023-02-09T03:38:07.759Z,17.00
2023-02-09T03:40:36.793Z,18.03
2023-02-09T03:43:05.523Z,18.13
2023-02-09T03:45:34.193Z,17.77
2023-02-09T03:48:02.939Z,17.67
2023-02-09T03:50:33.481Z,17.17
2023-02-09T03:53:02.985Z,16.70
2023-02-09T03:55:31.727Z,15.93
2023-02-09T03:58:00.893Z,17.20
2023-02-09T04:00:29.680Z,17.33
2023-02-09T04:02:59.391Z,15.63
2023-02-09T04:05:28.232Z,16.47
2023-02-09T04:08:00.658Z,16.20
2023-02-09T04:10:29.617Z,16.33
2023-02-09T04:12:58.339Z,15.80
2023-02-09T04:15:27.073Z,16.30
2023-02-09T04:17:55.882Z,16.93
2023-02-09T04:20:24.680Z,17.93
2023-02-09T04:22:53.441Z,16.23
2023-02-09T04:25:23.665Z,16.17
2023-02-09T04:27:52.437Z,16.97
2023-02-09T04:30:21.743Z,16.73
2023-02-09T04:32:50.764Z,16.73
2023-02-09T04:35:19.714Z,15.87
2023-02-09T04:37:48.695Z,15.83
2023-02-09T04:40:17.726Z,17.67
2023-02-09T04:42:49.150Z,16.60
2023-02-09T04:45:17.939Z,15.00
2023-02-09T04:47:46.736Z,16.67
2023-02-09T04:50:16.184Z,17.33
2023-02-09T04:52:45.011Z,18.23
2023-02-09T04:55:13.773Z,17.40
2023-02-09T04:58:00.001Z,16.60
2023-02-09T05:00:30.323Z,16.97
2023-02-09T05:02:59.123Z,16.93
2023-02-09T05:05:28.135Z,16.40
2023-02-09T05:07:57.036Z,16.43
2023-02-09T05:10:25.862Z,17.07
2023-02-09T05:12:54.647Z,17.20
2023-02-09T05:15:23.536Z,16.60
2023-02-09T05:17:53.976Z,17.20
2023-02-09T05:20:23.014Z,16.97
2023-02-09T05:22:52.048Z,16.17
2023-02-09T05:25:20.868Z,16.80
2023-02-09T05:27:49.676Z,17.23
2023-02-09T05:30:18.624Z,17.10
2023-02-09T05:32:47.463Z,16.93
2023-02-09T05:35:17.883Z,17.03
2023-02-09T05:37:46.671Z,16.50
2023-02-09T05:40:15.955Z,16.57
2023-02-09T05:42:44.753Z,16.73
2023-02-09T05:45:13.546Z,17.87
2023-02-09T05:47:42.340Z,16.57
2023-02-09T05:50:11.338Z,16.60
2023-02-09T05:52:41.453Z,15.37
2023-02-09T05:55:10.501Z,17.60
2023-02-09T05:57:39.549Z,17.87
2023-02-09T06:00:10.180Z,16.37
2023-02-09T06:02:39.122Z,17.43
2023-02-09T06:05:09.262Z,16.27
2023-02-09T06:07:38.060Z,16.43
2023-02-09T06:10:09.475Z,17.30
2023-02-09T06:12:39.300Z,17.63
2023-02-09T06:15:10.462Z,16.50
2023-02-09T06:17:39.345Z,15.60
2023-02-09T06:20:09.493Z,16.57
2023-02-09T06:22:38.456Z,15.40
2023-02-09T06:25:09.393Z,16.00
2023-02-09T06:27:38.741Z,16.37
2023-02-09T06:30:09.162Z,16.60
2023-02-09T06:32:37.927Z,16.40
2023-02-09T06:35:07.474Z,16.73
2023-02-09T06:37:36.244Z,15.60
2023-02-09T06:40:05.610Z,17.53
2023-02-09T06:42:44.875Z,18.27
2023-02-09T06:45:15.551Z,17.53
2023-02-09T06:47:46.070Z,17.27
2023-02-09T06:50:17.984Z,19.83
2023-02-09T06:52:47.318Z,18.87
2023-02-09T06:55:16.323Z,20.60
2023-02-09T06:57:46.487Z,19.30
2023-02-09T07:00:17.020Z,19.97
2023-02-09T07:02:46.664Z,24.27
2023-02-09T07:05:18.143Z,18.40
2023-02-09T07:07:47.892Z,20.07
2023-02-09T07:10:19.394Z,20.30
2023-02-09T07:12:49.622Z,17.93
2023-02-09T07:15:18.785Z,19.70
2023-02-09T07:17:47.696Z,23.70
2023-02-09T07:20:16.489Z,20.43
2023-02-09T07:22:45.386Z,22.60
2023-02-09T07:25:14.132Z,22.60
2023-02-09T07:27:45.531Z,21.67
2023-02-09T07:30:18.083Z,19.83
2023-02-09T07:32:46.915Z,19.30
2023-02-09T07:35:15.801Z,18.53
2023-02-09T07:37:44.635Z,19.93
2023-02-09T07:40:14.258Z,18.87
2023-02-09T07:42:43.021Z,18.60
2023-02-09T07:45:12.061Z,18.40
2023-02-09T07:47:42.298Z,17.47
2023-02-09T07:50:11.808Z,18.93
2023-02-09T07:52:40.546Z,19.43
2023-02-09T07:55:09.776Z,20.17
2023-02-09T07:57:38.581Z,19.33
2023-02-09T08:00:08.766Z,18.60
2023-02-09T08:02:39.290Z,19.03
2023-02-09T08:05:20.901Z,18.97
2023-02-09T08:07:50.034Z,18.20
2023-02-09T08:10:20.696Z,19.33
2023-02-09T08:13:10.490Z,18.37
2023-02-09T08:15:46.115Z,19.33
2023-02-09T08:18:20.348Z,18.80
2023-02-09T08:20:53.357Z,19.00
2023-02-09T08:23:26.530Z,18.20
2023-02-09T08:25:56.470Z,17.20
2023-02-09T08:28:38.308Z,21.73
2023-02-09T08:31:12.591Z,23.63
2023-02-09T08:33:42.026Z,18.30
2023-02-09T08:36:13.807Z,18.73
2023-02-09T08:38:42.695Z,20.00
2023-02-09T08:41:15.096Z,19.47
2023-02-09T08:43:44.142Z,18.67
2023-02-09T08:46:14.773Z,18.70
2023-02-09T08:48:46.614Z,19.10
2023-02-09T08:51:17.901Z,19.75
2023-02-09T08:53:52.680Z,19.63
2023-02-09T08:56:23.408Z,17.87
2023-02-09T08:58:52.229Z,18.70
2023-02-09T09:01:20.960Z,19.10
2023-02-09T09:03:49.916Z,18.35
2023-02-09T09:06:21.829Z,17.38
2023-02-09T09:08:51.753Z,18.30
2023-02-09T09:11:20.934Z,18.00
2023-02-09T09:13:49.893Z,18.08
2023-02-09T09:16:22.195Z,18.35
2023-02-09T09:18:52.186Z,16.95
2023-02-09T09:21:22.600Z,18.48
2023-02-09T09:23:51.333Z,17.45
2023-02-09T09:26:20.479Z,17.75
2023-02-09T09:28:51.915Z,18.15
2023-02-09T09:31:21.799Z,18.00
2023-02-09T09:33:50.574Z,16.92
2023-02-09T09:36:20.715Z,16.77
2023-02-09T09:38:51.041Z,17.25
2023-02-09T09:41:25.608Z,18.08
2023-02-09T09:43:56.367Z,16.85
2023-02-09T09:46:36.784Z,17.45
2023-02-09T09:49:06.618Z,16.05
2023-02-09T09:51:41.434Z,17.50
2023-02-09T09:54:20.046Z,17.35
2023-02-09T09:56:49.502Z,17.85
2023-02-09T09:59:22.975Z,18.08
2023-02-09T10:01:54.408Z,18.27
2023-02-09T10:04:23.282Z,16.40
2023-02-09T10:07:03.175Z,18.88
2023-02-09T10:09:43.451Z,17.83
2023-02-09T10:12:30.016Z,17.17
2023-02-09T10:14:58.865Z,17.75
2023-02-09T10:17:27.590Z,18.00
2023-02-09T10:20:05.535Z,17.83
2023-02-09T10:22:34.422Z,18.17
2023-02-09T10:25:38.209Z,18.27
2023-02-09T10:28:07.432Z,17.67
2023-02-09T10:30:36.362Z,18.25
2023-02-09T10:33:05.412Z,17.60
2023-02-09T10:35:47.538Z,20.65
2023-02-09T10:38:20.252Z,19.55
2023-02-09T10:40:51.859Z,19.42
2023-02-09T10:43:25.490Z,17.92
2023-02-09T10:45:57.676Z,19.15
2023-02-09T10:48:28.613Z,20.02
2023-02-09T10:51:01.136Z,25.17
2023-02-09T10:53:33.465Z,22.92
2023-02-09T10:56:09.356Z,23.90
2023-02-09T10:58:39.057Z,19.50
2023-02-09T11:01:19.936Z,19.88
2023-02-09T11:04:02.206Z,19.80
2023-02-09T11:06:43.726Z,19.97
2023-02-09T11:09:18.616Z,22.33
2023-02-09T11:11:49.041Z,20.17
2023-02-09T11:14:20.874Z,23.30
2023-02-09T11:17:14.387Z,20.03
2023-02-09T11:20:07.024Z,27.50
2023-02-09T11:23:01.275Z,19.10
2023-02-09T11:25:36.495Z,21.50
2023-02-09T11:28:41.021Z,21.57
2023-02-09T11:31:46.903Z,20.95
2023-02-09T11:34:41.797Z,19.97
2023-02-09T11:37:29.233Z,21.20
2023-02-09T11:40:09.285Z,17.35
2023-02-09T11:42:45.344Z,17.23
2023-02-09T11:45:23.431Z,17.90
2023-02-09T11:48:10.166Z,16.35
2023-02-09T11:50:53.654Z,15.73
2023-02-09T11:53:40.233Z,15.30
2023-02-09T11:56:14.354Z,15.63
2023-02-09T11:58:49.986Z,26.95
2023-02-09T12:01:34.717Z,18.65
2023-02-09T12:04:14.171Z,15.75
2023-02-09T12:06:49.567Z,14.98
2023-02-09T12:09:47.010Z,15.30
2023-02-09T12:12:29.216Z,13.95
2023-02-09T12:15:12.301Z,14.73
2023-02-09T12:17:49.940Z,14.88
2023-02-09T12:20:31.014Z,15.52
2023-02-09T12:23:08.081Z,14.45
2023-02-09T12:25:57.596Z,14.88
2023-02-09T12:28:49.617Z,23.35
2023-02-09T12:31:28.146Z,16.92
2023-02-09T12:34:31.274Z,13.63
2023-02-09T12:37:28.850Z,12.85
2023-02-09T12:40:24.978Z,21.98
2023-02-09T12:43:28.716Z,25.43
2023-02-09T12:46:22.544Z,12.43
2023-02-09T12:49:00.775Z,12.43
2023-02-09T12:52:17.996Z,12.53
2023-02-09T12:54:50.975Z,13.47
2023-02-09T12:57:53.620Z,14.87
2023-02-09T13:00:44.480Z,16.73
2023-02-09T13:03:25.939Z,16.33
2023-02-09T13:06:01.699Z,13.20
2023-02-09T13:08:41.509Z,11.30
2023-02-09T13:11:27.287Z,11.13
2023-02-09T13:13:59.905Z,11.27
2023-02-09T13:16:57.975Z,12.13
2023-02-09T13:20:11.970Z,11.57
2023-02-09T13:22:58.533Z,11.43
2023-02-09T13:25:35.554Z,12.17
2023-02-09T13:28:16.343Z,12.70
2023-02-09T13:30:46.304Z,11.73
2023-02-09T13:33:37.583Z,11.50
2023-02-09T13:36:25.300Z,12.30
2023-02-09T13:38:55.082Z,12.47
2023-02-09T13:41:37.086Z,13.13
2023-02-09T13:44:20.893Z,11.47
2023-02-09T13:46:56.337Z,10.77
2023-02-09T13:49:26.972Z,11.17
2023-02-09T13:52:19.929Z,11.70
2023-02-09T13:54:48.888Z,11.23
2023-02-09T13:57:33.442Z,11.83
2023-02-09T14:00:16.779Z,12.23
2023-02-09T14:02:52.072Z,12.20
2023-02-09T14:05:34.115Z,12.73
2023-02-09T14:08:03.724Z,13.00
2023-02-09T14:10:36.150Z,11.97
2023-02-09T14:13:14.754Z,12.70
2023-02-09T14:16:06.452Z,12.67
2023-02-09T14:18:51.876Z,12.80
2023-02-09T14:21:31.764Z,12.20
2023-02-09T14:24:19.097Z,12.47
2023-02-09T14:26:53.734Z,12.63
2023-02-09T14:29:29.474Z,13.57
2023-02-09T14:32:01.280Z,13.47
2023-02-09T14:34:39.716Z,13.07
2023-02-09T14:37:32.047Z,11.90
2023-02-09T14:40:13.894Z,10.87
2023-02-09T14:43:00.994Z,11.77
2023-02-09T14:45:39.159Z,11.33
2023-02-09T14:48:23.284Z,11.33
2023-02-09T14:50:56.567Z,11.00
2023-02-09T14:53:29.236Z,11.60
2023-02-09T14:55:59.175Z,13.17
2023-02-09T14:58:30.405Z,13.30
2023-02-09T15:01:03.905Z,19.97
2023-02-09T15:03:32.738Z,13.63
2023-02-09T15:06:05.040Z,13.77
2023-02-09T15:08:39.209Z,12.23
2023-02-09T15:11:31.655Z,11.60
2023-02-09T15:14:04.184Z,12.63
2023-02-09T15:16:34.648Z,25.70
2023-02-09T15:19:05.580Z,20.97
2023-02-09T15:21:34.550Z,15.13
2023-02-09T15:24:03.254Z,12.40
2023-02-09T15:26:35.879Z,12.33
2023-02-09T15:29:10.671Z,11.43
2023-02-09T15:31:41.277Z,11.77
2023-02-09T15:34:14.633Z,10.83
2023-02-09T15:36:43.813Z,10.37
2023-02-09T15:39:22.079Z,10.73
2023-02-09T15:42:08.398Z,21.03
2023-02-09T15:44:54.340Z,16.17
2023-02-09T15:47:41.812Z,12.50
2023-02-09T15:50:11.074Z,12.47
2023-02-09T15:52:39.907Z,11.73
2023-02-09T15:55:09.861Z,23.90
2023-02-09T15:57:38.691Z,12.33
2023-02-09T16:00:17.461Z,17.50
2023-02-09T16:02:49.679Z,31.57
2023-02-09T16:05:18.669Z,14.30
2023-02-09T16:07:47.870Z,16.63
2023-02-09T16:10:23.839Z,13.20
2023-02-09T16:12:53.568Z,13.50
2023-02-09T16:15:25.046Z,12.87
2023-02-09T16:17:55.320Z,13.17
2023-02-09T16:20:26.034Z,14.20
2023-02-09T16:22:59.885Z,14.23
2023-02-09T16:25:32.054Z,14.30
2023-02-09T16:28:00.897Z,14.30
2023-02-09T16:30:35.114Z,13.83
2023-02-09T16:33:05.578Z,14.07
2023-02-09T16:35:35.347Z,13.77
2023-02-09T16:38:04.479Z,13.37
2023-02-09T16:40:34.738Z,13.77
2023-02-09T16:43:04.019Z,14.37
2023-02-09T16:45:37.222Z,14.57
2023-02-09T16:48:09.105Z,14.77
2023-02-09T16:50:42.206Z,15.30
2023-02-09T16:53:19.190Z,15.13
2023-02-09T16:55:49.586Z,14.77
2023-02-09T16:58:18.704Z,15.27
2023-02-09T17:00:48.079Z,15.17
2023-02-09T17:03:23.495Z,16.37
2023-02-09T17:05:55.938Z,15.63
2023-02-09T17:08:28.143Z,16.87
2023-02-09T17:10:58.060Z,16.47
2023-02-09T17:13:27.288Z,16.17
2023-02-09T17:16:00.875Z,16.67
2023-02-09T17:18:36.217Z,17.13
2023-02-09T17:21:09.695Z,17.57
2023-02-09T17:23:38.521Z,18.03
2023-02-09T17:26:07.537Z,15.60
2023-02-09T17:28:36.417Z,20.17
2023-02-09T17:31:17.735Z,17.47
2023-02-09T17:33:51.314Z,16.13
2023-02-09T17:36:27.008Z,17.07
2023-02-09T17:38:57.841Z,16.37
2023-02-09T17:41:34.324Z,16.93
2023-02-09T17:44:24.083Z,17.90
2023-02-09T17:46:55.942Z,17.10
2023-02-09T17:49:26.272Z,17.43
2023-02-09T17:51:55.123Z,17.63
2023-02-09T17:54:24.098Z,18.57
2023-02-09T17:56:52.867Z,20.50
2023-02-09T17:59:21.657Z,19.40
2023-02-09T18:01:51.234Z,19.20
2023-02-09T18:04:23.118Z,20.20
2023-02-09T18:06:53.402Z,20.20
2023-02-09T18:09:22.259Z,21.83
2023-02-09T18:12:02.202Z,20.93
2023-02-09T18:14:34.217Z,20.20
2023-02-09T18:17:03.542Z,21.20
2023-02-09T18:19:33.117Z,20.97
2023-02-09T18:22:04.471Z,22.00
2023-02-09T18:24:35.791Z,21.07
2023-02-09T18:27:04.894Z,21.37
2023-02-09T18:29:34.140Z,21.57
2023-02-09T18:32:05.160Z,23.07
2023-02-09T18:34:33.994Z,21.90
2023-02-09T18:37:04.294Z,20.93
2023-02-09T18:39:36.023Z,18.87
2023-02-09T18:42:05.069Z,20.73
2023-02-09T18:44:34.446Z,19.83
2023-02-09T18:47:03.291Z,20.77
2023-02-09T18:49:32.165Z,20.33
2023-02-09T18:52:01.744Z,20.00
2023-02-09T18:54:33.754Z,21.33
2023-02-09T18:57:02.663Z,20.87
2023-02-09T18:59:33.591Z,20.60
2023-02-09T19:02:02.652Z,21.13
2023-02-09T19:04:31.428Z,22.47
2023-02-09T19:07:02.051Z,21.13
2023-02-09T19:09:32.198Z,20.43
2023-02-09T19:12:01.304Z,20.97
2023-02-09T19:14:38.965Z,24.07
2023-02-09T19:17:11.171Z,22.13
2023-02-09T19:19:40.033Z,20.30
2023-02-09T19:22:09.134Z,28.97
2023-02-09T19:24:39.401Z,21.53
2023-02-09T19:27:11.386Z,21.73
2023-02-09T19:29:42.951Z,24.20
2023-02-09T19:32:14.448Z,21.83
2023-02-09T19:34:46.127Z,21.47
2023-02-09T19:37:16.496Z,21.97
2023-02-09T19:39:53.045Z,22.77
2023-02-09T19:42:23.545Z,22.77
2023-02-09T19:44:55.723Z,21.60
2023-02-09T19:47:26.084Z,21.90
2023-02-09T19:49:56.379Z,23.10
2023-02-09T19:52:27.169Z,21.93
2023-02-09T19:54:58.106Z,22.00
2023-02-09T19:57:27.427Z,22.37
2023-02-09T19:59:56.659Z,22.10
2023-02-09T20:02:25.436Z,20.37
2023-02-09T20:04:54.413Z,20.43
2023-02-09T20:07:26.494Z,21.50
2023-02-09T20:09:58.237Z,22.20
2023-02-09T20:12:27.060Z,22.50
2023-02-09T20:14:55.955Z,22.20
2023-02-09T20:17:24.808Z,21.23
2023-02-09T20:19:53.817Z,22.13
2023-02-09T20:22:22.752Z,25.97
2023-02-09T20:24:51.703Z,23.33
2023-02-09T20:27:22.074Z,22.27
2023-02-09T20:29:54.188Z,23.67
2023-02-09T20:32:23.338Z,21.90
2023-02-09T20:34:52.225Z,21.30
2023-02-09T20:37:21.321Z,20.47
2023-02-09T20:39:50.930Z,24.63
2023-02-09T20:42:38.696Z,21.67
2023-02-09T20:45:26.793Z,21.83
2023-02-09T20:47:55.784Z,20.83
2023-02-09T20:50:24.968Z,20.50
2023-02-09T20:52:53.956Z,21.03
2023-02-09T20:55:22.787Z,20.80
2023-02-09T20:57:53.222Z,21.47
2023-02-09T21:00:22.787Z,22.80
2023-02-09T21:02:51.757Z,23.23
2023-02-09T21:05:21.151Z,23.40
2023-02-09T21:07:52.233Z,24.57
2023-02-09T21:10:21.358Z,23.87
2023-02-09T21:12:50.475Z,22.73
2023-02-09T21:15:20.818Z,23.63
2023-02-09T21:17:51.634Z,23.90
2023-02-09T21:20:20.669Z,20.80
2023-02-09T21:22:50.283Z,21.00
2023-02-09T21:25:20.240Z,22.83
2023-02-09T21:27:49.090Z,21.77
2023-02-09T21:30:19.665Z,22.47
2023-02-09T21:32:48.610Z,23.77
2023-02-09T21:35:17.859Z,25.17
2023-02-09T21:37:46.761Z,22.70
2023-02-09T21:40:16.314Z,22.70
2023-02-09T21:42:45.380Z,21.93
2023-02-09T21:45:14.921Z,23.93
2023-02-09T21:47:45.457Z,24.53
2023-02-09T21:50:15.131Z,22.13
2023-02-09T21:52:43.997Z,24.77
2023-02-09T21:55:13.106Z,21.60
2023-02-09T21:57:41.901Z,23.23
2023-02-09T22:00:13.272Z,21.83
2023-02-09T22:02:42.033Z,24.20
2023-02-09T22:05:12.970Z,23.47
2023-02-09T22:07:41.680Z,24.17
2023-02-09T22:10:10.890Z,22.50
2023-02-09T22:12:39.927Z,21.40
2023-02-09T22:15:09.966Z,32.07
2023-02-09T22:17:39.735Z,33.40
2023-02-09T22:20:11.167Z,30.57
2023-02-09T22:22:42.621Z,21.93
2023-02-09T22:25:11.358Z,21.83
2023-02-09T22:27:40.185Z,19.80
2023-02-09T22:30:10.746Z,20.53
2023-02-09T22:32:39.542Z,19.73
2023-02-09T22:35:09.127Z,18.50
2023-02-09T22:37:37.878Z,19.50
2023-02-09T22:40:09.515Z,20.60
2023-02-09T22:42:38.563Z,20.47
2023-02-09T22:45:08.645Z,21.50
2023-02-09T22:47:37.559Z,20.50
2023-02-09T22:50:07.269Z,22.87
2023-02-09T22:52:36.080Z,22.83
2023-02-09T22:55:04.995Z,20.10
2023-02-09T22:57:35.182Z,19.73
2023-02-09T23:00:07.679Z,18.93
2023-02-09T23:02:36.627Z,20.33
2023-02-09T23:05:05.731Z,21.23
2023-02-09T23:07:34.726Z,19.87
2023-02-09T23:10:03.508Z,28.53
2023-02-09T23:12:32.290Z,20.50
2023-02-09T23:15:02.394Z,18.93
2023-02-09T23:17:32.982Z,20.00
2023-02-09T23:20:02.105Z,19.53
2023-02-09T23:22:31.032Z,18.93
2023-02-09T23:25:01.668Z,23.40
2023-02-09T23:27:30.660Z,19.83
2023-02-09T23:29:59.427Z,18.87
2023-02-09T23:32:29.625Z,19.90
2023-02-09T23:37:37.527Z,19.17
2023-02-09T23:40:07.668Z,20.20
2023-02-09T23:42:36.455Z,18.63
2023-02-09T23:45:06.383Z,18.87
2023-02-09T23:47:36.801Z,20.07
2023-02-09T23:50:05.912Z,19.50
2023-02-09T23:52:34.682Z,20.73
2023-02-09T23:55:04.036Z,19.27
2023-02-09T23:57:32.777Z,19.27
